This is the latest recevied weather packets stored in our database for station/object K5DLF-13. If no packets are shown the sender has not sent any weather packets the latest 10 day(s).
| Time | Temp. | Humidity | Pressure | Rain* | Wind** | Luminosity | Snow |
|---|---|---|---|---|---|---|---|
| 1777687506 | 15° C | 96% | 1010.7 hPa | 0.25 mm | - | 0 W/m² | - |
| 1777687206 | 15° C | 96% | 1010.7 hPa | 0.25 mm | - | 0 W/m² | - |
| 1777686906 | 15° C | 96% | 1010.4 hPa | 0.25 mm | - | 0 W/m² | - |
| 1777686606 | 15.56° C | 97% | 1010.3 hPa | 0.25 mm | - | 0 W/m² | - |
| 1777686306 | 15.56° C | 97% | 1010.4 hPa | 0.25 mm | - | 0 W/m² | - |
| 1777686006 | 15.56° C | 97% | 1010.1 hPa | 0 mm | - | 0 W/m² | - |
| 1777684464 | 15.56° C | 97% | 1009.2 hPa | 4.32 mm | - | 0 W/m² | - |
| 1777684164 | 15.56° C | 97% | 1008.9 hPa | 4.06 mm | - | 0 W/m² | - |
| 1777683864 | 15.56° C | 97% | 1008.3 hPa | 4.06 mm | - | 0 W/m² | - |
| 1777683564 | 15.56° C | 96% | 1008.1 hPa | 4.06 mm | - | 0 W/m² | - |
| 1777683264 | 15.56° C | 96% | 1007.9 hPa | 4.06 mm | - | 0 W/m² | - |
| 1777682964 | 15.56° C | 96% | 1008.1 hPa | 3.81 mm | - | 0 W/m² | - |
| 1777682664 | 15.56° C | 96% | 1008.1 hPa | 3.3 mm | - | 0 W/m² | - |
| 1777682364 | 15.56° C | 97% | 1008.3 hPa | 2.54 mm | - | 5 W/m² | - |
| 1777682064 | 15.56° C | 97% | 1008.6 hPa | 1.52 mm | - | 11 W/m² | - |
| 1777681764 | 15.56° C | 97% | 1008.4 hPa | 1.02 mm | - | 14 W/m² | - |
| 1777681464 | 15.56° C | 97% | 1008.4 hPa | 1.27 mm | - | 0 W/m² | - |
| 1777681164 | 15.56° C | 96% | 1008.2 hPa | 1.52 mm | - | 0 W/m² | - |
| 1777680864 | 15.56° C | 96% | 1007.8 hPa | 1.52 mm | - | 0 W/m² | - |
| 1777680564 | 15.56° C | 96% | 1007 hPa | 1.52 mm | - | 0 W/m² | - |
| 1777680265 | 15.56° C | 96% | 1007.4 hPa | 1.52 mm | - | 0 W/m² | - |
| 1777679964 | 15.56° C | 96% | 1007.8 hPa | 1.52 mm | - | 0 W/m² | - |
| 1777679664 | 16.11° C | 96% | 1007.9 hPa | 1.27 mm | - | 0 W/m² | - |
| 1777679364 | 16.11° C | 97% | 1007.8 hPa | 1.52 mm | - | 0 W/m² | - |
| 1777679064 | 16.11° C | 97% | 1007.8 hPa | 1.27 mm | - | 0 W/m² | - |
* Rain latest hour (hover to see other rain measurements)
** Current wind speed in m/s (hover to see current wind gust speed)